sensor_id;sensor_type;location;lat;lon;timestamp;P1;durP1;ratioP1;P2;durP2;ratioP2
35257;SDS011;21385;50.878;8.050;2023-04-15T00:00:41;3.63;;;2.00;;
35257;SDS011;21385;50.878;8.050;2023-04-15T00:03:07;1.55;;;1.42;;
35257;SDS011;21385;50.878;8.050;2023-04-15T00:05:33;5.57;;;1.92;;
35257;SDS011;21385;50.878;8.050;2023-04-15T00:07:59;1.27;;;1.10;;
35257;SDS011;21385;50.878;8.050;2023-04-15T00:10:26;2.42;;;2.20;;
35257;SDS011;21385;50.878;8.050;2023-04-15T00:12:51;1.95;;;1.77;;
35257;SDS011;21385;50.878;8.050;2023-04-15T00:15:17;1.45;;;1.35;;
35257;SDS011;21385;50.878;8.050;2023-04-15T00:17:43;6.22;;;1.70;;
35257;SDS011;21385;50.878;8.050;2023-04-15T00:20:10;1.05;;;1.05;;
35257;SDS011;21385;50.878;8.050;2023-04-15T00:22:36;2.05;;;1.55;;
35257;SDS011;21385;50.878;8.050;2023-04-15T00:25:01;2.90;;;1.70;;
35257;SDS011;21385;50.878;8.050;2023-04-15T00:27:27;7.35;;;1.50;;
35257;SDS011;21385;50.878;8.050;2023-04-15T00:29:54;4.15;;;1.70;;
35257;SDS011;21385;50.878;8.050;2023-04-15T00:32:20;1.85;;;0.88;;
35257;SDS011;21385;50.878;8.050;2023-04-15T00:34:46;2.72;;;2.53;;
35257;SDS011;21385;50.878;8.050;2023-04-15T00:37:11;2.92;;;1.52;;
35257;SDS011;21385;50.878;8.050;2023-04-15T00:39:37;1.15;;;1.00;;
35257;SDS011;21385;50.878;8.050;2023-04-15T00:42:03;1.58;;;1.42;;
35257;SDS011;21385;50.878;8.050;2023-04-15T00:44:29;4.10;;;1.77;;
35257;SDS011;21385;50.878;8.050;2023-04-15T00:46:55;1.50;;;1.00;;
35257;SDS011;21385;50.878;8.050;2023-04-15T00:49:21;1.70;;;1.60;;
35257;SDS011;21385;50.878;8.050;2023-04-15T00:51:48;2.33;;;1.48;;
35257;SDS011;21385;50.878;8.050;2023-04-15T00:54:14;1.50;;;1.38;;
35257;SDS011;21385;50.878;8.050;2023-04-15T00:56:40;1.20;;;1.10;;
35257;SDS011;21385;50.878;8.050;2023-04-15T00:59:06;1.95;;;1.73;;
35257;SDS011;21385;50.878;8.050;2023-04-15T01:01:36;1.77;;;1.42;;
35257;SDS011;21385;50.878;8.050;2023-04-15T01:04:02;3.17;;;1.33;;
35257;SDS011;21385;50.878;8.050;2023-04-15T01:06:29;1.30;;;1.20;;
35257;SDS011;21385;50.878;8.050;2023-04-15T01:08:56;1.42;;;1.13;;
35257;SDS011;21385;50.878;8.050;2023-04-15T01:11:22;8.80;;;1.52;;
35257;SDS011;21385;50.878;8.050;2023-04-15T01:13:52;1.92;;;1.38;;
35257;SDS011;21385;50.878;8.050;2023-04-15T01:16:19;4.78;;;1.20;;
35257;SDS011;21385;50.878;8.050;2023-04-15T01:18:45;1.60;;;1.10;;
35257;SDS011;21385;50.878;8.050;2023-04-15T01:21:11;2.63;;;1.98;;
35257;SDS011;21385;50.878;8.050;2023-04-15T01:23:37;6.90;;;1.98;;
35257;SDS011;21385;50.878;8.050;2023-04-15T01:26:04;1.50;;;1.30;;
35257;SDS011;21385;50.878;8.050;2023-04-15T01:28:32;1.75;;;1.45;;
35257;SDS011;21385;50.878;8.050;2023-04-15T01:31:31;1.40;;;0.93;;
35257;SDS011;21385;50.878;8.050;2023-04-15T01:33:50;2.60;;;1.48;;
35257;SDS011;21385;50.878;8.050;2023-04-15T01:36:15;6.28;;;1.48;;
35257;SDS011;21385;50.878;8.050;2023-04-15T01:38:41;2.75;;;1.70;;
35257;SDS011;21385;50.878;8.050;2023-04-15T01:41:07;0.98;;;0.95;;
35257;SDS011;21385;50.878;8.050;2023-04-15T01:43:33;3.97;;;1.70;;
35257;SDS011;21385;50.878;8.050;2023-04-15T01:46:01;8.88;;;0.90;;
35257;SDS011;21385;50.878;8.050;2023-04-15T01:48:27;1.00;;;0.93;;
35257;SDS011;21385;50.878;8.050;2023-04-15T01:50:53;2.17;;;1.63;;
35257;SDS011;21385;50.878;8.050;2023-04-15T01:53:21;1.98;;;1.25;;
35257;SDS011;21385;50.878;8.050;2023-04-15T01:55:47;3.42;;;1.02;;
35257;SDS011;21385;50.878;8.050;2023-04-15T01:58:13;0.55;;;0.55;;
35257;SDS011;21385;50.878;8.050;2023-04-15T02:00:39;0.93;;;0.88;;
35257;SDS011;21385;50.878;8.050;2023-04-15T02:03:05;3.70;;;1.08;;
35257;SDS011;21385;50.878;8.050;2023-04-15T02:05:30;3.83;;;2.33;;
35257;SDS011;21385;50.878;8.050;2023-04-15T02:07:56;1.40;;;1.15;;
35257;SDS011;21385;50.878;8.050;2023-04-15T02:10:22;4.68;;;1.42;;
35257;SDS011;21385;50.878;8.050;2023-04-15T02:12:47;1.23;;;1.13;;
35257;SDS011;21385;50.878;8.050;2023-04-15T02:15:13;1.83;;;1.73;;
35257;SDS011;21385;50.878;8.050;2023-04-15T02:17:39;0.82;;;0.82;;
35257;SDS011;21385;50.878;8.050;2023-04-15T02:20:07;1.45;;;1.25;;
35257;SDS011;21385;50.878;8.050;2023-04-15T02:22:33;1.25;;;1.17;;
35257;SDS011;21385;50.878;8.050;2023-04-15T02:24:59;5.90;;;1.27;;
35257;SDS011;21385;50.878;8.050;2023-04-15T02:27:25;0.95;;;0.80;;
35257;SDS011;21385;50.878;8.050;2023-04-15T02:29:52;1.35;;;1.20;;
35257;SDS011;21385;50.878;8.050;2023-04-15T02:32:18;3.50;;;1.35;;
35257;SDS011;21385;50.878;8.050;2023-04-15T02:34:44;1.02;;;0.88;;
35257;SDS011;21385;50.878;8.050;2023-04-15T02:37:11;1.58;;;0.70;;
35257;SDS011;21385;50.878;8.050;2023-04-15T02:39:37;1.45;;;1.15;;
35257;SDS011;21385;50.878;8.050;2023-04-15T02:42:03;1.25;;;1.08;;
35257;SDS011;21385;50.878;8.050;2023-04-15T02:44:30;3.30;;;1.58;;
35257;SDS011;21385;50.878;8.050;2023-04-15T02:46:57;4.03;;;1.55;;
35257;SDS011;21385;50.878;8.050;2023-04-15T02:49:23;1.50;;;1.40;;
35257;SDS011;21385;50.878;8.050;2023-04-15T02:51:49;0.98;;;0.85;;
35257;SDS011;21385;50.878;8.050;2023-04-15T02:54:16;2.92;;;1.00;;
35257;SDS011;21385;50.878;8.050;2023-04-15T02:56:42;1.70;;;1.20;;
35257;SDS011;21385;50.878;8.050;2023-04-15T02:59:07;1.25;;;1.15;;
35257;SDS011;21385;50.878;8.050;2023-04-15T03:01:33;8.05;;;2.17;;
35257;SDS011;21385;50.878;8.050;2023-04-15T03:03:59;5.43;;;1.60;;
35257;SDS011;21385;50.878;8.050;2023-04-15T03:06:25;0.60;;;0.60;;
35257;SDS011;21385;50.878;8.050;2023-04-15T03:08:51;1.17;;;1.10;;
35257;SDS011;21385;50.878;8.050;2023-04-15T03:11:18;2.47;;;1.67;;
35257;SDS011;21385;50.878;8.050;2023-04-15T03:13:45;1.20;;;0.98;;
35257;SDS011;21385;50.878;8.050;2023-04-15T03:16:11;12.05;;;2.53;;
35257;SDS011;21385;50.878;8.050;2023-04-15T03:18:37;11.65;;;2.30;;
35257;SDS011;21385;50.878;8.050;2023-04-15T03:21:02;1.40;;;1.30;;
35257;SDS011;21385;50.878;8.050;2023-04-15T03:23:29;1.50;;;1.00;;
35257;SDS011;21385;50.878;8.050;2023-04-15T03:25:56;1.08;;;1.05;;
35257;SDS011;21385;50.878;8.050;2023-04-15T03:28:22;2.25;;;1.85;;
35257;SDS011;21385;50.878;8.050;2023-04-15T03:30:48;2.28;;;1.20;;
35257;SDS011;21385;50.878;8.050;2023-04-15T03:33:14;1.27;;;1.15;;
35257;SDS011;21385;50.878;8.050;2023-04-15T03:35:39;2.28;;;2.08;;
35257;SDS011;21385;50.878;8.050;2023-04-15T03:38:05;1.05;;;1.05;;
35257;SDS011;21385;50.878;8.050;2023-04-15T03:40:31;1.40;;;1.27;;
35257;SDS011;21385;50.878;8.050;2023-04-15T03:42:57;4.80;;;1.88;;
35257;SDS011;21385;50.878;8.050;2023-04-15T03:45:22;0.95;;;0.90;;
35257;SDS011;21385;50.878;8.050;2023-04-15T03:47:48;2.00;;;1.23;;
35257;SDS011;21385;50.878;8.050;2023-04-15T03:50:14;2.28;;;1.15;;
35257;SDS011;21385;50.878;8.050;2023-04-15T03:52:40;2.20;;;1.05;;
35257;SDS011;21385;50.878;8.050;2023-04-15T03:55:05;2.42;;;1.80;;
35257;SDS011;21385;50.878;8.050;2023-04-15T03:57:32;1.48;;;1.20;;
35257;SDS011;21385;50.878;8.050;2023-04-15T04:00:02;0.98;;;0.90;;
35257;SDS011;21385;50.878;8.050;2023-04-15T04:02:31;3.13;;;1.30;;
35257;SDS011;21385;50.878;8.050;2023-04-15T04:04:57;1.58;;;1.48;;
35257;SDS011;21385;50.878;8.050;2023-04-15T04:07:23;2.22;;;1.52;;
35257;SDS011;21385;50.878;8.050;2023-04-15T04:09:49;2.13;;;1.60;;
35257;SDS011;21385;50.878;8.050;2023-04-15T04:12:15;2.58;;;1.55;;
35257;SDS011;21385;50.878;8.050;2023-04-15T04:14:41;0.70;;;0.70;;
35257;SDS011;21385;50.878;8.050;2023-04-15T04:17:07;3.80;;;1.35;;
35257;SDS011;21385;50.878;8.050;2023-04-15T04:19:33;1.77;;;1.45;;
35257;SDS011;21385;50.878;8.050;2023-04-15T04:21:58;1.13;;;1.02;;
35257;SDS011;21385;50.878;8.050;2023-04-15T04:24:24;1.52;;;1.42;;
35257;SDS011;21385;50.878;8.050;2023-04-15T04:26:50;1.05;;;0.95;;
35257;SDS011;21385;50.878;8.050;2023-04-15T04:29:16;1.20;;;1.10;;
35257;SDS011;21385;50.878;8.050;2023-04-15T04:31:41;1.15;;;0.82;;
35257;SDS011;21385;50.878;8.050;2023-04-15T04:34:07;2.58;;;1.00;;
35257;SDS011;21385;50.878;8.050;2023-04-15T04:36:33;1.20;;;1.13;;
35257;SDS011;21385;50.878;8.050;2023-04-15T04:38:58;2.35;;;2.03;;
35257;SDS011;21385;50.878;8.050;2023-04-15T04:41:25;1.77;;;1.35;;
35257;SDS011;21385;50.878;8.050;2023-04-15T04:43:51;1.17;;;1.10;;
35257;SDS011;21385;50.878;8.050;2023-04-15T04:46:16;1.25;;;1.15;;
35257;SDS011;21385;50.878;8.050;2023-04-15T04:48:42;2.70;;;1.38;;
35257;SDS011;21385;50.878;8.050;2023-04-15T04:51:08;1.77;;;1.60;;
35257;SDS011;21385;50.878;8.050;2023-04-15T04:53:34;1.35;;;1.20;;
35257;SDS011;21385;50.878;8.050;2023-04-15T04:56:01;8.63;;;1.45;;
35257;SDS011;21385;50.878;8.050;2023-04-15T04:58:27;1.10;;;1.00;;
35257;SDS011;21385;50.878;8.050;2023-04-15T05:00:53;1.20;;;1.10;;
35257;SDS011;21385;50.878;8.050;2023-04-15T05:03:19;0.93;;;0.90;;
35257;SDS011;21385;50.878;8.050;2023-04-15T05:05:44;1.00;;;0.95;;
35257;SDS011;21385;50.878;8.050;2023-04-15T05:08:10;2.88;;;1.13;;
35257;SDS011;21385;50.878;8.050;2023-04-15T05:10:36;1.77;;;1.58;;
35257;SDS011;21385;50.878;8.050;2023-04-15T05:13:01;1.13;;;1.00;;
35257;SDS011;21385;50.878;8.050;2023-04-15T05:15:27;0.82;;;0.80;;
35257;SDS011;21385;50.878;8.050;2023-04-15T05:17:53;2.55;;;1.42;;
35257;SDS011;21385;50.878;8.050;2023-04-15T05:20:19;0.80;;;0.80;;
35257;SDS011;21385;50.878;8.050;2023-04-15T05:22:44;1.42;;;0.90;;
35257;SDS011;21385;50.878;8.050;2023-04-15T05:25:10;1.75;;;1.10;;
35257;SDS011;21385;50.878;8.050;2023-04-15T05:27:36;2.75;;;1.10;;
35257;SDS011;21385;50.878;8.050;2023-04-15T05:30:02;1.00;;;1.00;;
35257;SDS011;21385;50.878;8.050;2023-04-15T05:32:28;4.00;;;1.02;;
35257;SDS011;21385;50.878;8.050;2023-04-15T05:34:53;1.52;;;1.42;;
35257;SDS011;21385;50.878;8.050;2023-04-15T05:37:19;1.27;;;1.17;;
35257;SDS011;21385;50.878;8.050;2023-04-15T05:39:46;2.40;;;1.77;;
35257;SDS011;21385;50.878;8.050;2023-04-15T05:42:12;3.80;;;1.58;;
35257;SDS011;21385;50.878;8.050;2023-04-15T05:44:38;3.38;;;2.30;;
35257;SDS011;21385;50.878;8.050;2023-04-15T05:47:08;3.05;;;2.38;;
35257;SDS011;21385;50.878;8.050;2023-04-15T05:49:35;1.60;;;1.50;;
35257;SDS011;21385;50.878;8.050;2023-04-15T05:52:01;3.92;;;1.80;;
35257;SDS011;21385;50.878;8.050;2023-04-15T05:54:27;5.57;;;2.28;;
35257;SDS011;21385;50.878;8.050;2023-04-15T05:56:52;3.65;;;1.88;;
35257;SDS011;21385;50.878;8.050;2023-04-15T05:59:18;2.88;;;2.67;;
35257;SDS011;21385;50.878;8.050;2023-04-15T06:01:44;1.45;;;1.35;;
35257;SDS011;21385;50.878;8.050;2023-04-15T06:04:10;3.08;;;2.78;;
35257;SDS011;21385;50.878;8.050;2023-04-15T06:06:36;7.82;;;2.60;;
35257;SDS011;21385;50.878;8.050;2023-04-15T06:09:02;7.70;;;3.17;;
35257;SDS011;21385;50.878;8.050;2023-04-15T06:11:29;6.82;;;2.47;;
35257;SDS011;21385;50.878;8.050;2023-04-15T06:13:54;2.17;;;1.98;;
35257;SDS011;21385;50.878;8.050;2023-04-15T06:16:20;4.70;;;2.47;;
35257;SDS011;21385;50.878;8.050;2023-04-15T06:18:47;5.75;;;2.25;;
35257;SDS011;21385;50.878;8.050;2023-04-15T06:21:13;2.35;;;1.88;;
35257;SDS011;21385;50.878;8.050;2023-04-15T06:23:39;2.35;;;2.13;;
35257;SDS011;21385;50.878;8.050;2023-04-15T06:26:05;1.88;;;1.77;;
35257;SDS011;21385;50.878;8.050;2023-04-15T06:28:31;2.60;;;2.17;;
35257;SDS011;21385;50.878;8.050;2023-04-15T06:30:57;2.65;;;1.77;;
35257;SDS011;21385;50.878;8.050;2023-04-15T06:33:23;1.58;;;1.48;;
35257;SDS011;21385;50.878;8.050;2023-04-15T06:35:48;4.45;;;2.45;;
35257;SDS011;21385;50.878;8.050;2023-04-15T06:38:14;1.92;;;1.73;;
35257;SDS011;21385;50.878;8.050;2023-04-15T06:40:40;3.13;;;2.75;;
35257;SDS011;21385;50.878;8.050;2023-04-15T06:43:06;3.22;;;2.25;;
35257;SDS011;21385;50.878;8.050;2023-04-15T06:45:33;2.17;;;1.83;;
35257;SDS011;21385;50.878;8.050;2023-04-15T06:47:59;1.38;;;1.27;;
35257;SDS011;21385;50.878;8.050;2023-04-15T06:50:25;3.25;;;2.22;;
35257;SDS011;21385;50.878;8.050;2023-04-15T06:52:52;1.60;;;1.50;;
35257;SDS011;21385;50.878;8.050;2023-04-15T06:55:18;2.75;;;1.95;;
35257;SDS011;21385;50.878;8.050;2023-04-15T06:57:44;3.60;;;2.47;;
35257;SDS011;21385;50.878;8.050;2023-04-15T07:00:10;9.93;;;2.58;;
35257;SDS011;21385;50.878;8.050;2023-04-15T07:02:36;2.53;;;2.30;;
35257;SDS011;21385;50.878;8.050;2023-04-15T07:05:02;1.48;;;1.38;;
35257;SDS011;21385;50.878;8.050;2023-04-15T07:07:28;4.30;;;2.63;;
35257;SDS011;21385;50.878;8.050;2023-04-15T07:09:54;5.28;;;2.55;;
35257;SDS011;21385;50.878;8.050;2023-04-15T07:12:20;5.72;;;3.20;;
35257;SDS011;21385;50.878;8.050;2023-04-15T07:14:45;4.68;;;3.22;;
35257;SDS011;21385;50.878;8.050;2023-04-15T07:17:11;7.95;;;3.13;;
35257;SDS011;21385;50.878;8.050;2023-04-15T07:19:37;4.72;;;2.33;;
35257;SDS011;21385;50.878;8.050;2023-04-15T07:22:02;4.25;;;2.92;;
35257;SDS011;21385;50.878;8.050;2023-04-15T07:24:28;33.47;;;4.00;;
35257;SDS011;21385;50.878;8.050;2023-04-15T07:26:55;3.97;;;2.83;;
35257;SDS011;21385;50.878;8.050;2023-04-15T07:29:23;10.23;;;3.08;;
35257;SDS011;21385;50.878;8.050;2023-04-15T07:31:49;8.52;;;3.17;;
35257;SDS011;21385;50.878;8.050;2023-04-15T07:34:15;5.53;;;3.88;;
35257;SDS011;21385;50.878;8.050;2023-04-15T07:36:41;7.25;;;4.15;;
35257;SDS011;21385;50.878;8.050;2023-04-15T07:39:07;7.05;;;3.45;;
35257;SDS011;21385;50.878;8.050;2023-04-15T07:41:33;6.32;;;2.28;;
35257;SDS011;21385;50.878;8.050;2023-04-15T07:43:59;9.50;;;3.38;;
35257;SDS011;21385;50.878;8.050;2023-04-15T07:46:25;3.95;;;3.45;;
35257;SDS011;21385;50.878;8.050;2023-04-15T07:48:51;3.35;;;2.97;;
35257;SDS011;21385;50.878;8.050;2023-04-15T07:51:18;7.55;;;2.95;;
35257;SDS011;21385;50.878;8.050;2023-04-15T07:53:45;1.50;;;1.00;;
35257;SDS011;21385;50.878;8.050;2023-04-15T07:56:12;5.68;;;1.30;;
35257;SDS011;21385;50.878;8.050;2023-04-15T07:58:38;1.10;;;0.98;;
35257;SDS011;21385;50.878;8.050;2023-04-15T08:01:03;0.85;;;0.75;;
35257;SDS011;21385;50.878;8.050;2023-04-15T08:03:29;1.02;;;0.50;;
35257;SDS011;21385;50.878;8.050;2023-04-15T08:05:56;0.55;;;0.55;;
35257;SDS011;21385;50.878;8.050;2023-04-15T08:08:21;0.47;;;0.47;;
35257;SDS011;21385;50.878;8.050;2023-04-15T08:10:47;0.50;;;0.50;;
35257;SDS011;21385;50.878;8.050;2023-04-15T08:13:13;0.43;;;0.43;;
35257;SDS011;21385;50.878;8.050;2023-04-15T08:15:40;0.88;;;0.60;;
35257;SDS011;21385;50.878;8.050;2023-04-15T08:18:06;0.52;;;0.52;;
35257;SDS011;21385;50.878;8.050;2023-04-15T08:20:32;1.20;;;1.00;;
35257;SDS011;21385;50.878;8.050;2023-04-15T08:22:58;1.13;;;1.02;;
35257;SDS011;21385;50.878;8.050;2023-04-15T08:25:24;1.08;;;0.80;;
35257;SDS011;21385;50.878;8.050;2023-04-15T08:27:50;1.35;;;0.90;;
35257;SDS011;21385;50.878;8.050;2023-04-15T08:30:15;1.25;;;1.13;;
35257;SDS011;21385;50.878;8.050;2023-04-15T08:32:41;1.20;;;1.10;;
35257;SDS011;21385;50.878;8.050;2023-04-15T08:35:11;1.23;;;1.13;;
35257;SDS011;21385;50.878;8.050;2023-04-15T08:37:37;1.52;;;0.95;;
35257;SDS011;21385;50.878;8.050;2023-04-15T08:40:03;1.50;;;1.38;;
35257;SDS011;21385;50.878;8.050;2023-04-15T08:42:30;0.70;;;0.70;;
35257;SDS011;21385;50.878;8.050;2023-04-15T08:45:00;1.13;;;1.10;;
35257;SDS011;21385;50.878;8.050;2023-04-15T08:47:29;2.83;;;1.40;;
35257;SDS011;21385;50.878;8.050;2023-04-15T08:49:58;1.02;;;0.90;;
35257;SDS011;21385;50.878;8.050;2023-04-15T08:52:29;0.73;;;0.73;;
35257;SDS011;21385;50.878;8.050;2023-04-15T08:54:55;0.68;;;0.68;;
35257;SDS011;21385;50.878;8.050;2023-04-15T08:57:25;0.93;;;0.93;;
35257;SDS011;21385;50.878;8.050;2023-04-15T08:59:52;1.35;;;1.25;;
35257;SDS011;21385;50.878;8.050;2023-04-15T09:02:21;0.63;;;0.63;;
35257;SDS011;21385;50.878;8.050;2023-04-15T09:04:48;1.13;;;0.93;;
35257;SDS011;21385;50.878;8.050;2023-04-15T09:07:14;7.38;;;1.00;;
35257;SDS011;21385;50.878;8.050;2023-04-15T09:09:40;2.20;;;1.25;;
35257;SDS011;21385;50.878;8.050;2023-04-15T09:12:06;1.13;;;0.90;;
35257;SDS011;21385;50.878;8.050;2023-04-15T09:14:32;1.90;;;1.35;;
35257;SDS011;21385;50.878;8.050;2023-04-15T09:16:59;0.82;;;0.82;;
35257;SDS011;21385;50.878;8.050;2023-04-15T09:19:27;1.23;;;1.13;;
35257;SDS011;21385;50.878;8.050;2023-04-15T09:21:53;1.60;;;1.50;;
35257;SDS011;21385;50.878;8.050;2023-04-15T09:24:23;1.42;;;1.20;;
35257;SDS011;21385;50.878;8.050;2023-04-15T09:26:51;1.52;;;1.30;;
35257;SDS011;21385;50.878;8.050;2023-04-15T09:29:18;1.17;;;1.08;;
35257;SDS011;21385;50.878;8.050;2023-04-15T09:31:44;1.60;;;1.40;;
35257;SDS011;21385;50.878;8.050;2023-04-15T09:34:10;7.63;;;1.10;;
35257;SDS011;21385;50.878;8.050;2023-04-15T09:39:20;1.58;;;0.95;;
35257;SDS011;21385;50.878;8.050;2023-04-15T09:41:46;1.25;;;1.15;;
35257;SDS011;21385;50.878;8.050;2023-04-15T09:44:28;2.83;;;1.52;;
35257;SDS011;21385;50.878;8.050;2023-04-15T09:46:53;1.25;;;1.15;;
35257;SDS011;21385;50.878;8.050;2023-04-15T09:49:19;2.35;;;1.45;;
35257;SDS011;21385;50.878;8.050;2023-04-15T09:51:45;1.95;;;1.23;;
35257;SDS011;21385;50.878;8.050;2023-04-15T09:54:11;2.35;;;1.90;;
35257;SDS011;21385;50.878;8.050;2023-04-15T09:56:37;4.28;;;1.55;;
35257;SDS011;21385;50.878;8.050;2023-04-15T09:59:09;1.25;;;1.08;;
35257;SDS011;21385;50.878;8.050;2023-04-15T10:01:35;1.30;;;1.20;;
35257;SDS011;21385;50.878;8.050;2023-04-15T10:04:04;1.40;;;1.30;;
35257;SDS011;21385;50.878;8.050;2023-04-15T10:06:30;1.35;;;1.25;;
35257;SDS011;21385;50.878;8.050;2023-04-15T10:08:59;1.33;;;1.23;;
35257;SDS011;21385;50.878;8.050;2023-04-15T10:11:28;7.15;;;1.40;;
35257;SDS011;21385;50.878;8.050;2023-04-15T10:13:55;1.45;;;1.35;;
35257;SDS011;21385;50.878;8.050;2023-04-15T10:16:21;8.30;;;1.00;;
35257;SDS011;21385;50.878;8.050;2023-04-15T10:18:53;1.50;;;1.30;;
35257;SDS011;21385;50.878;8.050;2023-04-15T10:21:21;1.50;;;1.40;;
35257;SDS011;21385;50.878;8.050;2023-04-15T10:23:47;0.75;;;0.75;;
35257;SDS011;21385;50.878;8.050;2023-04-15T10:26:14;1.30;;;1.05;;
35257;SDS011;21385;50.878;8.050;2023-04-15T10:28:44;1.20;;;1.10;;
35257;SDS011;21385;50.878;8.050;2023-04-15T10:31:13;1.30;;;1.20;;
35257;SDS011;21385;50.878;8.050;2023-04-15T10:33:39;1.55;;;1.20;;
35257;SDS011;21385;50.878;8.050;2023-04-15T10:36:06;1.90;;;1.48;;
35257;SDS011;21385;50.878;8.050;2023-04-15T10:38:39;1.45;;;1.17;;
35257;SDS011;21385;50.878;8.050;2023-04-15T10:41:23;1.00;;;1.00;;
35257;SDS011;21385;50.878;8.050;2023-04-15T10:44:09;2.65;;;1.15;;
35257;SDS011;21385;50.878;8.050;2023-04-15T11:00:50;2.80;;;1.52;;
35257;SDS011;21385;50.878;8.050;2023-04-15T11:03:30;2.33;;;2.13;;
35257;SDS011;21385;50.878;8.050;2023-04-15T11:06:03;1.92;;;1.65;;
35257;SDS011;21385;50.878;8.050;2023-04-15T11:11:17;2.40;;;2.03;;
35257;SDS011;21385;50.878;8.050;2023-04-15T11:13:47;1.50;;;1.20;;
35257;SDS011;21385;50.878;8.050;2023-04-15T11:16:14;2.22;;;1.80;;
35257;SDS011;21385;50.878;8.050;2023-04-15T11:18:40;1.77;;;1.55;;
35257;SDS011;21385;50.878;8.050;2023-04-15T11:21:06;2.08;;;1.75;;
35257;SDS011;21385;50.878;8.050;2023-04-15T11:26:02;6.90;;;1.85;;
35257;SDS011;21385;50.878;8.050;2023-04-15T11:28:34;3.58;;;1.80;;
35257;SDS011;21385;50.878;8.050;2023-04-15T11:33:46;3.28;;;2.15;;
35257;SDS011;21385;50.878;8.050;2023-04-15T11:36:19;2.15;;;1.95;;
35257;SDS011;21385;50.878;8.050;2023-04-15T11:38:45;1.73;;;1.48;;
35257;SDS011;21385;50.878;8.050;2023-04-15T11:41:12;2.67;;;1.75;;
35257;SDS011;21385;50.878;8.050;2023-04-15T11:43:37;2.13;;;1.67;;
35257;SDS011;21385;50.878;8.050;2023-04-15T11:46:03;1.52;;;1.40;;
35257;SDS011;21385;50.878;8.050;2023-04-15T11:48:32;2.03;;;1.92;;
35257;SDS011;21385;50.878;8.050;2023-04-15T11:51:04;2.22;;;2.03;;
35257;SDS011;21385;50.878;8.050;2023-04-15T11:56:19;2.25;;;1.73;;
35257;SDS011;21385;50.878;8.050;2023-04-15T11:58:46;2.75;;;1.95;;
35257;SDS011;21385;50.878;8.050;2023-04-15T12:01:13;2.10;;;1.88;;
35257;SDS011;21385;50.878;8.050;2023-04-15T12:03:42;1.70;;;1.60;;
35257;SDS011;21385;50.878;8.050;2023-04-15T12:11:42;1.20;;;1.13;;
35257;SDS011;21385;50.878;8.050;2023-04-15T12:14:28;2.25;;;2.03;;
35257;SDS011;21385;50.878;8.050;2023-04-15T12:16:59;2.10;;;1.73;;
35257;SDS011;21385;50.878;8.050;2023-04-15T12:19:27;1.60;;;1.40;;
35257;SDS011;21385;50.878;8.050;2023-04-15T12:21:57;1.55;;;1.40;;
35257;SDS011;21385;50.878;8.050;2023-04-15T12:24:24;2.58;;;1.85;;
35257;SDS011;21385;50.878;8.050;2023-04-15T12:26:54;2.15;;;1.50;;
35257;SDS011;21385;50.878;8.050;2023-04-15T12:29:24;2.80;;;2.28;;
35257;SDS011;21385;50.878;8.050;2023-04-15T12:34:31;1.45;;;1.35;;
35257;SDS011;21385;50.878;8.050;2023-04-15T12:37:00;1.63;;;1.48;;
35257;SDS011;21385;50.878;8.050;2023-04-15T12:39:28;2.10;;;1.30;;
35257;SDS011;21385;50.878;8.050;2023-04-15T12:41:55;1.27;;;1.10;;
35257;SDS011;21385;50.878;8.050;2023-04-15T12:44:21;2.10;;;1.23;;
35257;SDS011;21385;50.878;8.050;2023-04-15T12:46:48;1.83;;;1.30;;
35257;SDS011;21385;50.878;8.050;2023-04-15T12:49:14;3.33;;;1.10;;
35257;SDS011;21385;50.878;8.050;2023-04-15T12:51:43;1.00;;;1.00;;
35257;SDS011;21385;50.878;8.050;2023-04-15T12:54:09;3.88;;;1.63;;
35257;SDS011;21385;50.878;8.050;2023-04-15T12:56:35;4.90;;;2.47;;
35257;SDS011;21385;50.878;8.050;2023-04-15T12:59:01;3.33;;;1.77;;
35257;SDS011;21385;50.878;8.050;2023-04-15T13:01:27;2.28;;;1.48;;
35257;SDS011;21385;50.878;8.050;2023-04-15T13:03:52;7.55;;;1.58;;
35257;SDS011;21385;50.878;8.050;2023-04-15T13:06:18;1.27;;;1.17;;
35257;SDS011;21385;50.878;8.050;2023-04-15T13:08:44;1.33;;;1.23;;
35257;SDS011;21385;50.878;8.050;2023-04-15T13:11:10;2.30;;;1.80;;
35257;SDS011;21385;50.878;8.050;2023-04-15T13:13:35;3.05;;;1.30;;
35257;SDS011;21385;50.878;8.050;2023-04-15T13:16:01;1.67;;;1.38;;
35257;SDS011;21385;50.878;8.050;2023-04-15T13:18:27;2.83;;;1.65;;
35257;SDS011;21385;50.878;8.050;2023-04-15T13:20:55;7.75;;;3.88;;
35257;SDS011;21385;50.878;8.050;2023-04-15T13:23:20;2.45;;;2.25;;
35257;SDS011;21385;50.878;8.050;2023-04-15T13:25:46;7.75;;;2.67;;
35257;SDS011;21385;50.878;8.050;2023-04-15T13:28:12;5.63;;;5.07;;
35257;SDS011;21385;50.878;8.050;2023-04-15T13:30:37;2.97;;;2.20;;
35257;SDS011;21385;50.878;8.050;2023-04-15T13:33:04;1.40;;;1.30;;
35257;SDS011;21385;50.878;8.050;2023-04-15T13:35:31;1.63;;;1.45;;
35257;SDS011;21385;50.878;8.050;2023-04-15T13:37:56;4.13;;;3.05;;
35257;SDS011;21385;50.878;8.050;2023-04-15T13:40:22;2.03;;;1.70;;
35257;SDS011;21385;50.878;8.050;2023-04-15T13:42:54;1.27;;;0.95;;
35257;SDS011;21385;50.878;8.050;2023-04-15T13:45:21;1.15;;;1.08;;
35257;SDS011;21385;50.878;8.050;2023-04-15T13:47:47;6.43;;;3.42;;
35257;SDS011;21385;50.878;8.050;2023-04-15T13:50:13;1.75;;;1.65;;
35257;SDS011;21385;50.878;8.050;2023-04-15T13:52:39;0.93;;;0.93;;
35257;SDS011;21385;50.878;8.050;2023-04-15T13:55:04;1.42;;;1.33;;
35257;SDS011;21385;50.878;8.050;2023-04-15T13:57:31;4.70;;;1.13;;
35257;SDS011;21385;50.878;8.050;2023-04-15T13:59:57;1.33;;;1.15;;
35257;SDS011;21385;50.878;8.050;2023-04-15T14:02:22;2.22;;;2.03;;
35257;SDS011;21385;50.878;8.050;2023-04-15T14:04:48;1.10;;;1.00;;
35257;SDS011;21385;50.878;8.050;2023-04-15T14:07:14;2.65;;;0.88;;
35257;SDS011;21385;50.878;8.050;2023-04-15T14:09:40;1.92;;;1.73;;
35257;SDS011;21385;50.878;8.050;2023-04-15T14:12:06;1.98;;;1.88;;
35257;SDS011;21385;50.878;8.050;2023-04-15T14:14:32;1.70;;;1.13;;
35257;SDS011;21385;50.878;8.050;2023-04-15T14:16:57;1.33;;;1.20;;
35257;SDS011;21385;50.878;8.050;2023-04-15T14:19:23;1.23;;;1.13;;
35257;SDS011;21385;50.878;8.050;2023-04-15T14:21:49;1.98;;;1.00;;
35257;SDS011;21385;50.878;8.050;2023-04-15T14:24:15;6.35;;;1.35;;
35257;SDS011;21385;50.878;8.050;2023-04-15T14:26:41;3.90;;;2.42;;
35257;SDS011;21385;50.878;8.050;2023-04-15T14:29:08;2.90;;;2.40;;
35257;SDS011;21385;50.878;8.050;2023-04-15T14:31:34;1.48;;;1.35;;
35257;SDS011;21385;50.878;8.050;2023-04-15T14:34:00;3.55;;;1.10;;
35257;SDS011;21385;50.878;8.050;2023-04-15T14:36:26;5.35;;;2.20;;
35257;SDS011;21385;50.878;8.050;2023-04-15T14:38:52;1.33;;;1.20;;
35257;SDS011;21385;50.878;8.050;2023-04-15T14:41:18;1.45;;;1.02;;
35257;SDS011;21385;50.878;8.050;2023-04-15T14:43:44;2.00;;;1.25;;
35257;SDS011;21385;50.878;8.050;2023-04-15T14:46:09;2.15;;;1.27;;
35257;SDS011;21385;50.878;8.050;2023-04-15T14:48:35;2.08;;;1.67;;
35257;SDS011;21385;50.878;8.050;2023-04-15T14:51:01;0.82;;;0.73;;
35257;SDS011;21385;50.878;8.050;2023-04-15T14:53:27;1.23;;;1.13;;
35257;SDS011;21385;50.878;8.050;2023-04-15T14:55:52;3.90;;;3.28;;
35257;SDS011;21385;50.878;8.050;2023-04-15T14:58:18;2.65;;;1.88;;
35257;SDS011;21385;50.878;8.050;2023-04-15T15:00:44;5.07;;;4.38;;
35257;SDS011;21385;50.878;8.050;2023-04-15T15:03:10;2.95;;;2.60;;
35257;SDS011;21385;50.878;8.050;2023-04-15T15:05:39;8.57;;;7.00;;
35257;SDS011;21385;50.878;8.050;2023-04-15T15:08:07;6.90;;;6.13;;
35257;SDS011;21385;50.878;8.050;2023-04-15T15:10:34;2.30;;;2.10;;
35257;SDS011;21385;50.878;8.050;2023-04-15T15:13:03;7.15;;;5.55;;
35257;SDS011;21385;50.878;8.050;2023-04-15T15:15:30;3.95;;;2.75;;
35257;SDS011;21385;50.878;8.050;2023-04-15T15:17:58;3.95;;;3.58;;
35257;SDS011;21385;50.878;8.050;2023-04-15T15:20:25;7.13;;;5.55;;